sensor_id;sensor_type;location;lat;lon;timestamp;temperature;humidity
69715;HTU21D;56981;53.532;49.398;2022-07-17T00:00:42;20.99;78.03
69715;HTU21D;56981;53.532;49.398;2022-07-17T00:03:12;20.98;77.84
69715;HTU21D;56981;53.532;49.398;2022-07-17T00:05:38;20.95;77.86
69715;HTU21D;56981;53.532;49.398;2022-07-17T00:08:08;20.94;78.17
69715;HTU21D;56981;53.532;49.398;2022-07-17T00:10:35;20.94;77.45
69715;HTU21D;56981;53.532;49.398;2022-07-17T00:13:02;20.93;77.05
69715;HTU21D;56981;53.532;49.398;2022-07-17T00:15:28;20.94;76.79
69715;HTU21D;56981;53.532;49.398;2022-07-17T00:17:54;20.95;77.18
69715;HTU21D;56981;53.532;49.398;2022-07-17T00:20:20;20.98;77.21
69715;HTU21D;56981;53.532;49.398;2022-07-17T00:22:46;20.98;77.10
69715;HTU21D;56981;53.532;49.398;2022-07-17T00:25:12;20.99;77.23
69715;HTU21D;56981;53.532;49.398;2022-07-17T00:27:39;20.99;77.11
69715;HTU21D;56981;53.532;49.398;2022-07-17T00:30:05;20.96;77.54
69715;HTU21D;56981;53.532;49.398;2022-07-17T00:32:31;20.95;77.66
69715;HTU21D;56981;53.532;49.398;2022-07-17T00:34:57;20.95;77.57
69715;HTU21D;56981;53.532;49.398;2022-07-17T00:37:23;20.92;78.06
69715;HTU21D;56981;53.532;49.398;2022-07-17T00:39:49;20.91;78.03
69715;HTU21D;56981;53.532;49.398;2022-07-17T00:42:15;20.94;78.15
69715;HTU21D;56981;53.532;49.398;2022-07-17T00:44:41;20.98;77.84
69715;HTU21D;56981;53.532;49.398;2022-07-17T00:47:14;20.95;78.53
69715;HTU21D;56981;53.532;49.398;2022-07-17T00:49:40;20.94;77.81
69715;HTU21D;56981;53.532;49.398;2022-07-17T00:52:07;20.90;77.05
69715;HTU21D;56981;53.532;49.398;2022-07-17T00:54:40;20.94;77.88
69715;HTU21D;56981;53.532;49.398;2022-07-17T00:57:07;20.99;77.56
69715;HTU21D;56981;53.532;49.398;2022-07-17T00:59:33;20.98;77.28
69715;HTU21D;56981;53.532;49.398;2022-07-17T01:02:02;20.98;77.75
69715;HTU21D;56981;53.532;49.398;2022-07-17T01:04:28;21.03;77.68
69715;HTU21D;56981;53.532;49.398;2022-07-17T01:06:54;21.06;77.50
69715;HTU21D;56981;53.532;49.398;2022-07-17T01:09:20;21.07;78.43
69715;HTU21D;56981;53.532;49.398;2022-07-17T01:11:45;21.10;77.77
69715;HTU21D;56981;53.532;49.398;2022-07-17T01:14:12;21.14;78.21
69715;HTU21D;56981;53.532;49.398;2022-07-17T01:16:37;21.18;78.35
69715;HTU21D;56981;53.532;49.398;2022-07-17T01:19:05;21.30;76.81
69715;HTU21D;56981;53.532;49.398;2022-07-17T01:21:39;21.29;76.82
69715;HTU21D;56981;53.532;49.398;2022-07-17T01:24:06;21.24;77.82
69715;HTU21D;56981;53.532;49.398;2022-07-17T01:26:32;21.21;78.04
69715;HTU21D;56981;53.532;49.398;2022-07-17T01:28:57;21.32;77.95
69715;HTU21D;56981;53.532;49.398;2022-07-17T01:31:23;21.42;77.08
69715;HTU21D;56981;53.532;49.398;2022-07-17T01:33:49;21.51;75.60
69715;HTU21D;56981;53.532;49.398;2022-07-17T01:36:15;21.57;76.46
69715;HTU21D;56981;53.532;49.398;2022-07-17T01:38:41;21.55;76.04
69715;HTU21D;56981;53.532;49.398;2022-07-17T01:41:07;21.65;76.01
69715;HTU21D;56981;53.532;49.398;2022-07-17T01:43:32;21.73;75.61
69715;HTU21D;56981;53.532;49.398;2022-07-17T01:45:58;21.78;75.12
69715;HTU21D;56981;53.532;49.398;2022-07-17T01:48:25;21.89;74.42
69715;HTU21D;56981;53.532;49.398;2022-07-17T01:50:51;22.01;74.44
69715;HTU21D;56981;53.532;49.398;2022-07-17T01:53:17;22.28;73.73
69715;HTU21D;56981;53.532;49.398;2022-07-17T01:55:43;22.87;70.43
69715;HTU21D;56981;53.532;49.398;2022-07-17T01:58:09;23.45;67.47
69715;HTU21D;56981;53.532;49.398;2022-07-17T02:00:35;23.56;64.89
69715;HTU21D;56981;53.532;49.398;2022-07-17T02:03:02;23.76;66.27
69715;HTU21D;56981;53.532;49.398;2022-07-17T02:05:28;24.45;63.29
69715;HTU21D;56981;53.532;49.398;2022-07-17T02:07:54;24.57;62.98
69715;HTU21D;56981;53.532;49.398;2022-07-17T02:10:20;24.45;63.16
69715;HTU21D;56981;53.532;49.398;2022-07-17T02:12:46;24.25;63.18
69715;HTU21D;56981;53.532;49.398;2022-07-17T02:15:12;24.24;64.56
69715;HTU21D;56981;53.532;49.398;2022-07-17T02:17:38;24.18;64.33
69715;HTU21D;56981;53.532;49.398;2022-07-17T02:20:04;24.12;62.84
69715;HTU21D;56981;53.532;49.398;2022-07-17T02:22:32;24.02;63.31
69715;HTU21D;56981;53.532;49.398;2022-07-17T02:24:58;24.12;63.09
69715;HTU21D;56981;53.532;49.398;2022-07-17T02:27:24;24.28;63.65
69715;HTU21D;56981;53.532;49.398;2022-07-17T02:29:50;24.45;62.19
69715;HTU21D;56981;53.532;49.398;2022-07-17T02:32:16;24.63;61.44
69715;HTU21D;56981;53.532;49.398;2022-07-17T02:34:42;24.79;61.46
69715;HTU21D;56981;53.532;49.398;2022-07-17T02:37:08;25.04;61.15
69715;HTU21D;56981;53.532;49.398;2022-07-17T02:39:33;25.36;59.83
69715;HTU21D;56981;53.532;49.398;2022-07-17T02:41:59;25.89;57.13
69715;HTU21D;56981;53.532;49.398;2022-07-17T02:44:25;25.76;58.34
69715;HTU21D;56981;53.532;49.398;2022-07-17T02:46:51;25.74;59.00
69715;HTU21D;56981;53.532;49.398;2022-07-17T02:49:17;25.66;59.44
69715;HTU21D;56981;53.532;49.398;2022-07-17T02:51:43;25.71;59.41
69715;HTU21D;56981;53.532;49.398;2022-07-17T02:54:09;25.69;60.09
69715;HTU21D;56981;53.532;49.398;2022-07-17T02:56:34;26.04;57.86
69715;HTU21D;56981;53.532;49.398;2022-07-17T02:59:00;26.17;58.55
69715;HTU21D;56981;53.532;49.398;2022-07-17T03:01:26;26.37;58.08
69715;HTU21D;56981;53.532;49.398;2022-07-17T03:03:52;26.61;56.88
69715;HTU21D;56981;53.532;49.398;2022-07-17T03:06:18;27.21;54.13
69715;HTU21D;56981;53.532;49.398;2022-07-17T03:08:44;27.86;52.53
69715;HTU21D;56981;53.532;49.398;2022-07-17T03:11:11;28.14;51.91
69715;HTU21D;56981;53.532;49.398;2022-07-17T03:13:36;28.01;53.10
69715;HTU21D;56981;53.532;49.398;2022-07-17T03:16:02;28.17;52.24
69715;HTU21D;56981;53.532;49.398;2022-07-17T03:18:30;28.32;51.70
69715;HTU21D;56981;53.532;49.398;2022-07-17T03:20:55;28.79;50.01
69715;HTU21D;56981;53.532;49.398;2022-07-17T03:23:21;29.42;48.35
69715;HTU21D;56981;53.532;49.398;2022-07-17T03:25:47;30.12;45.92
69715;HTU21D;56981;53.532;49.398;2022-07-17T03:28:13;31.27;43.23
69715;HTU21D;56981;53.532;49.398;2022-07-17T03:30:39;32.10;41.03
69715;HTU21D;56981;53.532;49.398;2022-07-17T03:33:05;32.73;41.23
69715;HTU21D;56981;53.532;49.398;2022-07-17T03:35:31;33.55;38.78
69715;HTU21D;56981;53.532;49.398;2022-07-17T03:37:57;34.25;36.77
69715;HTU21D;56981;53.532;49.398;2022-07-17T03:40:23;34.92;34.76
69715;HTU21D;56981;53.532;49.398;2022-07-17T03:42:48;35.33;33.88
69715;HTU21D;56981;53.532;49.398;2022-07-17T03:45:14;35.24;33.38
69715;HTU21D;56981;53.532;49.398;2022-07-17T03:47:41;35.29;33.31
69715;HTU21D;56981;53.532;49.398;2022-07-17T03:50:07;36.04;32.19
69715;HTU21D;56981;53.532;49.398;2022-07-17T03:52:33;36.62;31.69
69715;HTU21D;56981;53.532;49.398;2022-07-17T03:54:59;37.19;30.48
69715;HTU21D;56981;53.532;49.398;2022-07-17T03:57:25;37.57;28.46
69715;HTU21D;56981;53.532;49.398;2022-07-17T03:59:50;37.56;28.10
69715;HTU21D;56981;53.532;49.398;2022-07-17T04:02:16;37.44;29.16
69715;HTU21D;56981;53.532;49.398;2022-07-17T04:04:45;37.66;26.97
69715;HTU21D;56981;53.532;49.398;2022-07-17T04:07:14;37.47;26.30
69715;HTU21D;56981;53.532;49.398;2022-07-17T04:09:56;37.07;28.65
69715;HTU21D;56981;53.532;49.398;2022-07-17T04:12:23;36.95;28.54
69715;HTU21D;56981;53.532;49.398;2022-07-17T04:14:49;37.07;27.37
69715;HTU21D;56981;53.532;49.398;2022-07-17T04:17:15;37.45;28.28
69715;HTU21D;56981;53.532;49.398;2022-07-17T04:19:41;37.10;26.70
69715;HTU21D;56981;53.532;49.398;2022-07-17T04:22:07;37.17;27.84
69715;HTU21D;56981;53.532;49.398;2022-07-17T04:24:33;36.99;26.57
69715;HTU21D;56981;53.532;49.398;2022-07-17T04:26:59;37.12;26.80
69715;HTU21D;56981;53.532;49.398;2022-07-17T04:29:25;37.04;27.55
69715;HTU21D;56981;53.532;49.398;2022-07-17T04:31:50;37.10;28.48
69715;HTU21D;56981;53.532;49.398;2022-07-17T04:34:17;36.98;28.45
69715;HTU21D;56981;53.532;49.398;2022-07-17T04:36:43;36.95;27.54
69715;HTU21D;56981;53.532;49.398;2022-07-17T04:39:09;37.10;28.71
69715;HTU21D;56981;53.532;49.398;2022-07-17T04:41:35;37.63;27.09
69715;HTU21D;56981;53.532;49.398;2022-07-17T04:44:00;37.33;27.64
69715;HTU21D;56981;53.532;49.398;2022-07-17T04:46:26;37.11;27.38
69715;HTU21D;56981;53.532;49.398;2022-07-17T04:48:52;36.75;28.80
69715;HTU21D;56981;53.532;49.398;2022-07-17T04:51:18;36.63;29.15
69715;HTU21D;56981;53.532;49.398;2022-07-17T04:53:44;36.02;29.54
69715;HTU21D;56981;53.532;49.398;2022-07-17T04:56:10;35.82;29.22
69715;HTU21D;56981;53.532;49.398;2022-07-17T04:58:36;35.67;32.47
69715;HTU21D;56981;53.532;49.398;2022-07-17T05:01:01;35.33;32.16
69715;HTU21D;56981;53.532;49.398;2022-07-17T05:03:27;34.77;31.41
69715;HTU21D;56981;53.532;49.398;2022-07-17T05:05:53;34.50;33.22
69715;HTU21D;56981;53.532;49.398;2022-07-17T05:08:19;33.80;33.56
69715;HTU21D;56981;53.532;49.398;2022-07-17T05:10:45;33.18;36.37
69715;HTU21D;56981;53.532;49.398;2022-07-17T05:13:11;32.96;36.28
69715;HTU21D;56981;53.532;49.398;2022-07-17T05:15:38;32.72;38.65
69715;HTU21D;56981;53.532;49.398;2022-07-17T05:18:04;32.58;37.19
69715;HTU21D;56981;53.532;49.398;2022-07-17T05:20:30;32.85;36.47
69715;HTU21D;56981;53.532;49.398;2022-07-17T05:22:55;33.16;36.25
69715;HTU21D;56981;53.532;49.398;2022-07-17T05:25:22;33.42;36.47
69715;HTU21D;56981;53.532;49.398;2022-07-17T05:27:48;34.00;35.31
69715;HTU21D;56981;53.532;49.398;2022-07-17T05:30:14;34.45;33.54
69715;HTU21D;56981;53.532;49.398;2022-07-17T05:32:40;34.97;32.23
69715;HTU21D;56981;53.532;49.398;2022-07-17T05:35:06;35.18;33.57
69715;HTU21D;56981;53.532;49.398;2022-07-17T05:37:31;35.19;33.61
69715;HTU21D;56981;53.532;49.398;2022-07-17T05:39:57;35.06;33.51
69715;HTU21D;56981;53.532;49.398;2022-07-17T05:42:23;35.16;32.30
69715;HTU21D;56981;53.532;49.398;2022-07-17T05:44:49;35.23;32.33
69715;HTU21D;56981;53.532;49.398;2022-07-17T05:47:15;35.58;32.42
69715;HTU21D;56981;53.532;49.398;2022-07-17T05:49:41;35.57;33.93
69715;HTU21D;56981;53.532;49.398;2022-07-17T05:52:07;35.72;30.94
69715;HTU21D;56981;53.532;49.398;2022-07-17T05:54:33;35.79;31.85
69715;HTU21D;56981;53.532;49.398;2022-07-17T05:57:00;36.07;30.89
69715;HTU21D;56981;53.532;49.398;2022-07-17T05:59:26;36.19;29.95
69715;HTU21D;56981;53.532;49.398;2022-07-17T06:01:52;36.47;29.91
69715;HTU21D;56981;53.532;49.398;2022-07-17T06:04:18;36.06;30.77
69715;HTU21D;56981;53.532;49.398;2022-07-17T06:06:44;35.64;31.27
69715;HTU21D;56981;53.532;49.398;2022-07-17T06:09:09;35.86;31.33
69715;HTU21D;56981;53.532;49.398;2022-07-17T06:11:35;35.96;30.21
69715;HTU21D;56981;53.532;49.398;2022-07-17T06:14:01;35.60;31.16
69715;HTU21D;56981;53.532;49.398;2022-07-17T06:16:27;35.25;31.78
69715;HTU21D;56981;53.532;49.398;2022-07-17T06:18:53;35.29;31.54
69715;HTU21D;56981;53.532;49.398;2022-07-17T06:21:19;35.75;31.20
69715;HTU21D;56981;53.532;49.398;2022-07-17T06:23:45;36.30;30.25
69715;HTU21D;56981;53.532;49.398;2022-07-17T06:26:11;36.60;29.89
69715;HTU21D;56981;53.532;49.398;2022-07-17T06:28:37;36.97;30.37
69715;HTU21D;56981;53.532;49.398;2022-07-17T06:31:02;36.95;28.17
69715;HTU21D;56981;53.532;49.398;2022-07-17T06:33:28;37.32;27.97
69715;HTU21D;56981;53.532;49.398;2022-07-17T06:35:54;37.34;28.36
69715;HTU21D;56981;53.532;49.398;2022-07-17T06:38:20;37.38;30.45
69715;HTU21D;56981;53.532;49.398;2022-07-17T06:40:46;37.19;28.47
69715;HTU21D;56981;53.532;49.398;2022-07-17T06:43:12;37.01;28.72
69715;HTU21D;56981;53.532;49.398;2022-07-17T06:45:38;36.93;30.24
69715;HTU21D;56981;53.532;49.398;2022-07-17T06:48:04;36.93;29.42
69715;HTU21D;56981;53.532;49.398;2022-07-17T06:50:30;36.45;30.98
69715;HTU21D;56981;53.532;49.398;2022-07-17T06:52:56;35.94;30.88
69715;HTU21D;56981;53.532;49.398;2022-07-17T06:55:24;36.10;32.25
69715;HTU21D;56981;53.532;49.398;2022-07-17T06:57:50;36.17;30.59
69715;HTU21D;56981;53.532;49.398;2022-07-17T07:00:15;36.32;31.20
69715;HTU21D;56981;53.532;49.398;2022-07-17T07:02:43;36.66;29.38
69715;HTU21D;56981;53.532;49.398;2022-07-17T07:05:09;36.92;30.16
69715;HTU21D;56981;53.532;49.398;2022-07-17T07:07:36;36.66;30.93
69715;HTU21D;56981;53.532;49.398;2022-07-17T07:10:02;36.71;28.18
69715;HTU21D;56981;53.532;49.398;2022-07-17T07:12:28;36.57;30.18
69715;HTU21D;56981;53.532;49.398;2022-07-17T07:14:55;36.48;26.92
69715;HTU21D;56981;53.532;49.398;2022-07-17T07:17:20;36.46;28.40
69715;HTU21D;56981;53.532;49.398;2022-07-17T07:19:46;36.27;28.90
69715;HTU21D;56981;53.532;49.398;2022-07-17T07:22:12;35.89;30.61
69715;HTU21D;56981;53.532;49.398;2022-07-17T07:24:38;36.14;29.83
69715;HTU21D;56981;53.532;49.398;2022-07-17T07:27:04;35.82;27.35
69715;HTU21D;56981;53.532;49.398;2022-07-17T07:29:30;35.56;29.75
69715;HTU21D;56981;53.532;49.398;2022-07-17T07:31:56;35.68;28.08
69715;HTU21D;56981;53.532;49.398;2022-07-17T07:34:22;35.53;29.19
69715;HTU21D;56981;53.532;49.398;2022-07-17T07:36:47;35.85;28.82
69715;HTU21D;56981;53.532;49.398;2022-07-17T07:39:13;36.16;29.79
69715;HTU21D;56981;53.532;49.398;2022-07-17T07:41:40;36.30;27.83
69715;HTU21D;56981;53.532;49.398;2022-07-17T07:44:07;36.56;28.86
69715;HTU21D;56981;53.532;49.398;2022-07-17T07:46:32;36.17;25.59
69715;HTU21D;56981;53.532;49.398;2022-07-17T07:48:59;36.29;26.83
69715;HTU21D;56981;53.532;49.398;2022-07-17T07:51:26;36.54;26.23
69715;HTU21D;56981;53.532;49.398;2022-07-17T07:53:52;36.34;25.49
69715;HTU21D;56981;53.532;49.398;2022-07-17T07:56:18;35.85;26.49
69715;HTU21D;56981;53.532;49.398;2022-07-17T07:58:44;35.60;28.45
69715;HTU21D;56981;53.532;49.398;2022-07-17T08:01:10;35.36;26.61
69715;HTU21D;56981;53.532;49.398;2022-07-17T08:03:35;35.58;28.05
69715;HTU21D;56981;53.532;49.398;2022-07-17T08:06:01;35.98;28.88
69715;HTU21D;56981;53.532;49.398;2022-07-17T08:08:27;35.94;28.51
69715;HTU21D;56981;53.532;49.398;2022-07-17T08:10:53;35.49;28.97
69715;HTU21D;56981;53.532;49.398;2022-07-17T08:13:19;35.14;29.69
69715;HTU21D;56981;53.532;49.398;2022-07-17T08:15:45;34.92;29.39
69715;HTU21D;56981;53.532;49.398;2022-07-17T08:18:12;35.08;30.05
69715;HTU21D;56981;53.532;49.398;2022-07-17T08:20:37;35.25;29.39
69715;HTU21D;56981;53.532;49.398;2022-07-17T08:23:03;35.39;29.64
69715;HTU21D;56981;53.532;49.398;2022-07-17T08:25:29;35.05;31.54
69715;HTU21D;56981;53.532;49.398;2022-07-17T08:27:56;34.86;30.97
69715;HTU21D;56981;53.532;49.398;2022-07-17T08:30:22;34.68;28.42
69715;HTU21D;56981;53.532;49.398;2022-07-17T08:32:48;34.77;31.23
69715;HTU21D;56981;53.532;49.398;2022-07-17T08:35:14;34.81;30.85
69715;HTU21D;56981;53.532;49.398;2022-07-17T08:40:15;35.14;30.61
69715;HTU21D;56981;53.532;49.398;2022-07-17T08:42:41;35.08;28.87
69715;HTU21D;56981;53.532;49.398;2022-07-17T08:45:09;34.89;29.85
69715;HTU21D;56981;53.532;49.398;2022-07-17T08:47:35;34.76;30.53
69715;HTU21D;56981;53.532;49.398;2022-07-17T08:50:01;34.73;31.19
69715;HTU21D;56981;53.532;49.398;2022-07-17T08:52:27;34.97;33.72
69715;HTU21D;56981;53.532;49.398;2022-07-17T08:54:53;34.89;29.32
69715;HTU21D;56981;53.532;49.398;2022-07-17T08:57:19;34.86;32.33
69715;HTU21D;56981;53.532;49.398;2022-07-17T08:59:48;34.75;30.34
69715;HTU21D;56981;53.532;49.398;2022-07-17T09:02:15;34.07;29.75
69715;HTU21D;56981;53.532;49.398;2022-07-17T09:04:41;33.96;30.58
69715;HTU21D;56981;53.532;49.398;2022-07-17T09:07:07;34.06;32.05
69715;HTU21D;56981;53.532;49.398;2022-07-17T09:09:37;33.96;31.32
69715;HTU21D;56981;53.532;49.398;2022-07-17T09:12:06;34.01;34.21
69715;HTU21D;56981;53.532;49.398;2022-07-17T09:14:36;34.25;32.27
69715;HTU21D;56981;53.532;49.398;2022-07-17T09:17:03;34.45;32.16
69715;HTU21D;56981;53.532;49.398;2022-07-17T09:19:33;34.49;33.51
69715;HTU21D;56981;53.532;49.398;2022-07-17T09:22:14;34.62;31.27
69715;HTU21D;56981;53.532;49.398;2022-07-17T09:24:41;34.29;30.71
69715;HTU21D;56981;53.532;49.398;2022-07-17T09:30:06;33.76;34.03
69715;HTU21D;56981;53.532;49.398;2022-07-17T09:32:34;33.87;30.72
69715;HTU21D;56981;53.532;49.398;2022-07-17T09:35:02;33.52;31.57
69715;HTU21D;56981;53.532;49.398;2022-07-17T09:37:29;33.32;32.02
69715;HTU21D;56981;53.532;49.398;2022-07-17T09:39:58;33.21;34.16
69715;HTU21D;56981;53.532;49.398;2022-07-17T09:42:26;33.13;32.43
69715;HTU21D;56981;53.532;49.398;2022-07-17T09:44:56;32.99;32.34
69715;HTU21D;56981;53.532;49.398;2022-07-17T09:47:24;33.18;32.20
69715;HTU21D;56981;53.532;49.398;2022-07-17T09:49:52;33.27;33.28
69715;HTU21D;56981;53.532;49.398;2022-07-17T09:52:39;33.57;34.24
69715;HTU21D;56981;53.532;49.398;2022-07-17T09:55:05;33.57;31.22
69715;HTU21D;56981;53.532;49.398;2022-07-17T09:57:32;33.48;32.92
69715;HTU21D;56981;53.532;49.398;2022-07-17T09:59:59;33.47;34.28
69715;HTU21D;56981;53.532;49.398;2022-07-17T10:02:26;33.25;32.36
69715;HTU21D;56981;53.532;49.398;2022-07-17T10:04:52;33.04;31.49
69715;HTU21D;56981;53.532;49.398;2022-07-17T10:07:19;33.08;31.87
69715;HTU21D;56981;53.532;49.398;2022-07-17T10:09:45;33.17;30.98
69715;HTU21D;56981;53.532;49.398;2022-07-17T10:12:11;33.14;32.16
69715;HTU21D;56981;53.532;49.398;2022-07-17T10:14:38;33.05;33.54
69715;HTU21D;56981;53.532;49.398;2022-07-17T10:17:12;33.18;32.13
69715;HTU21D;56981;53.532;49.398;2022-07-17T10:19:48;33.17;31.94
69715;HTU21D;56981;53.532;49.398;2022-07-17T10:22:15;33.21;31.30
69715;HTU21D;56981;53.532;49.398;2022-07-17T10:25:03;32.73;32.73
69715;HTU21D;56981;53.532;49.398;2022-07-17T10:27:30;32.89;34.12
69715;HTU21D;56981;53.532;49.398;2022-07-17T10:30:09;33.09;34.25
69715;HTU21D;56981;53.532;49.398;2022-07-17T10:32:36;33.13;33.28
69715;HTU21D;56981;53.532;49.398;2022-07-17T10:35:04;32.93;33.09
69715;HTU21D;56981;53.532;49.398;2022-07-17T10:40:24;33.06;33.29
69715;HTU21D;56981;53.532;49.398;2022-07-17T10:43:02;33.13;33.49
69715;HTU21D;56981;53.532;49.398;2022-07-17T10:45:29;33.20;33.34
69715;HTU21D;56981;53.532;49.398;2022-07-17T10:48:01;33.15;33.18
69715;HTU21D;56981;53.532;49.398;2022-07-17T10:50:31;32.91;32.94
69715;HTU21D;56981;53.532;49.398;2022-07-17T10:53:06;32.76;33.90
69715;HTU21D;56981;53.532;49.398;2022-07-17T10:55:33;32.42;32.51
69715;HTU21D;56981;53.532;49.398;2022-07-17T10:58:03;32.28;32.08
69715;HTU21D;56981;53.532;49.398;2022-07-17T11:00:29;32.15;33.23
69715;HTU21D;56981;53.532;49.398;2022-07-17T11:02:55;32.00;34.78
69715;HTU21D;56981;53.532;49.398;2022-07-17T11:05:21;32.00;35.82
69715;HTU21D;56981;53.532;49.398;2022-07-17T11:07:49;32.23;34.62
69715;HTU21D;56981;53.532;49.398;2022-07-17T11:10:16;32.19;34.26
69715;HTU21D;56981;53.532;49.398;2022-07-17T11:12:42;32.08;35.39
69715;HTU21D;56981;53.532;49.398;2022-07-17T11:15:08;32.18;36.93
69715;HTU21D;56981;53.532;49.398;2022-07-17T11:17:34;31.86;34.19
69715;HTU21D;56981;53.532;49.398;2022-07-17T11:20:01;32.09;36.21
69715;HTU21D;56981;53.532;49.398;2022-07-17T11:22:27;32.18;35.93
69715;HTU21D;56981;53.532;49.398;2022-07-17T11:24:53;32.11;35.85
69715;HTU21D;56981;53.532;49.398;2022-07-17T11:27:29;32.05;35.14
69715;HTU21D;56981;53.532;49.398;2022-07-17T11:29:56;31.92;37.05
69715;HTU21D;56981;53.532;49.398;2022-07-17T11:32:31;31.76;36.33
69715;HTU21D;56981;53.532;49.398;2022-07-17T11:34:57;31.78;37.01
69715;HTU21D;56981;53.532;49.398;2022-07-17T11:37:29;31.67;36.17
69715;HTU21D;56981;53.532;49.398;2022-07-17T11:39:56;31.58;38.73
69715;HTU21D;56981;53.532;49.398;2022-07-17T11:42:22;31.73;37.92
69715;HTU21D;56981;53.532;49.398;2022-07-17T11:44:49;31.73;37.99
69715;HTU21D;56981;53.532;49.398;2022-07-17T11:47:20;31.66;38.88
69715;HTU21D;56981;53.532;49.398;2022-07-17T11:49:50;31.51;37.91
69715;HTU21D;56981;53.532;49.398;2022-07-17T11:52:41;31.51;37.98
69715;HTU21D;56981;53.532;49.398;2022-07-17T11:55:07;31.49;38.17
69715;HTU21D;56981;53.532;49.398;2022-07-17T11:57:40;31.52;38.05
69715;HTU21D;56981;53.532;49.398;2022-07-17T12:00:07;31.61;39.11
69715;HTU21D;56981;53.532;49.398;2022-07-17T12:02:33;31.60;39.52
69715;HTU21D;56981;53.532;49.398;2022-07-17T12:05:00;31.55;36.51
69715;HTU21D;56981;53.532;49.398;2022-07-17T12:07:50;31.40;36.47
69715;HTU21D;56981;53.532;49.398;2022-07-17T12:10:18;31.36;37.72
69715;HTU21D;56981;53.532;49.398;2022-07-17T12:13:01;31.30;39.44
69715;HTU21D;56981;53.532;49.398;2022-07-17T12:15:48;31.23;39.96
69715;HTU21D;56981;53.532;49.398;2022-07-17T12:18:22;31.18;39.68
69715;HTU21D;56981;53.532;49.398;2022-07-17T12:20:50;31.01;38.78
69715;HTU21D;56981;53.532;49.398;2022-07-17T12:26:08;31.00;40.02
69715;HTU21D;56981;53.532;49.398;2022-07-17T12:28:34;31.00;40.23
69715;HTU21D;56981;53.532;49.398;2022-07-17T12:31:01;30.96;39.45
69715;HTU21D;56981;53.532;49.398;2022-07-17T12:33:26;30.97;41.21
69715;HTU21D;56981;53.532;49.398;2022-07-17T12:35:52;30.98;40.14
69715;HTU21D;56981;53.532;49.398;2022-07-17T12:38:18;30.95;40.13
69715;HTU21D;56981;53.532;49.398;2022-07-17T12:40:44;30.99;40.04
69715;HTU21D;56981;53.532;49.398;2022-07-17T12:43:10;30.90;39.41
69715;HTU21D;56981;53.532;49.398;2022-07-17T12:45:36;30.89;42.80
69715;HTU21D;56981;53.532;49.398;2022-07-17T12:48:02;30.75;43.09
69715;HTU21D;56981;53.532;49.398;2022-07-17T12:50:28;30.69;40.38
69715;HTU21D;56981;53.532;49.398;2022-07-17T12:52:54;30.57;42.52
69715;HTU21D;56981;53.532;49.398;2022-07-17T12:55:20;30.45;41.46
69715;HTU21D;56981;53.532;49.398;2022-07-17T12:57:46;30.41;41.71
69715;HTU21D;56981;53.532;49.398;2022-07-17T13:00:12;30.46;40.68
69715;HTU21D;56981;53.532;49.398;2022-07-17T13:02:38;30.53;40.83
69715;HTU21D;56981;53.532;49.398;2022-07-17T13:05:04;30.63;42.50
69715;HTU21D;56981;53.532;49.398;2022-07-17T13:07:30;30.67;42.57
69715;HTU21D;56981;53.532;49.398;2022-07-17T13:09:56;30.67;43.40
69715;HTU21D;56981;53.532;49.398;2022-07-17T13:12:21;30.62;42.86
69715;HTU21D;56981;53.532;49.398;2022-07-17T13:14:47;30.56;42.19
69715;HTU21D;56981;53.532;49.398;2022-07-17T13:17:13;30.49;40.63
69715;HTU21D;56981;53.532;49.398;2022-07-17T13:19:39;30.25;39.68
69715;HTU21D;56981;53.532;49.398;2022-07-17T13:22:05;30.24;40.15
69715;HTU21D;56981;53.532;49.398;2022-07-17T13:24:31;30.20;40.78
69715;HTU21D;56981;53.532;49.398;2022-07-17T13:26:58;30.15;40.68
69715;HTU21D;56981;53.532;49.398;2022-07-17T13:29:24;29.96;40.33
69715;HTU21D;56981;53.532;49.398;2022-07-17T13:31:52;30.04;41.17
69715;HTU21D;56981;53.532;49.398;2022-07-17T13:34:18;30.05;40.89
69715;HTU21D;56981;53.532;49.398;2022-07-17T13:36:44;30.00;41.52
69715;HTU21D;56981;53.532;49.398;2022-07-17T13:39:10;29.72;41.54
69715;HTU21D;56981;53.532;49.398;2022-07-17T13:41:36;29.67;41.92
69715;HTU21D;56981;53.532;49.398;2022-07-17T13:44:02;29.78;42.25
69715;HTU21D;56981;53.532;49.398;2022-07-17T13:46:28;29.72;40.38
69715;HTU21D;56981;53.532;49.398;2022-07-17T13:48:54;29.60;40.15
69715;HTU21D;56981;53.532;49.398;2022-07-17T13:51:20;29.62;39.04
69715;HTU21D;56981;53.532;49.398;2022-07-17T13:53:46;29.47;39.50
69715;HTU21D;56981;53.532;49.398;2022-07-17T13:56:12;29.43;38.35
69715;HTU21D;56981;53.532;49.398;2022-07-17T13:58:38;29.45;39.04
69715;HTU21D;56981;53.532;49.398;2022-07-17T14:01:04;29.45;36.50
69715;HTU21D;56981;53.532;49.398;2022-07-17T14:03:30;29.45;38.06
69715;HTU21D;56981;53.532;49.398;2022-07-17T14:05:56;29.45;39.73
69715;HTU21D;56981;53.532;49.398;2022-07-17T14:08:22;29.39;39.26
69715;HTU21D;56981;53.532;49.398;2022-07-17T14:10:48;29.32;39.48
69715;HTU21D;56981;53.532;49.398;2022-07-17T14:13:14;29.37;41.03
69715;HTU21D;56981;53.532;49.398;2022-07-17T14:15:40;29.30;41.49
69715;HTU21D;56981;53.532;49.398;2022-07-17T14:18:06;29.27;40.96
69715;HTU21D;56981;53.532;49.398;2022-07-17T14:20:32;29.23;41.44
69715;HTU21D;56981;53.532;49.398;2022-07-17T14:22:58;29.23;42.09
69715;HTU21D;56981;53.532;49.398;2022-07-17T14:25:24;29.21;40.68
69715;HTU21D;56981;53.532;49.398;2022-07-17T14:27:50;29.20;43.06
69715;HTU21D;56981;53.532;49.398;2022-07-17T14:30:16;29.17;41.23
69715;HTU21D;56981;53.532;49.398;2022-07-17T14:32:42;29.13;41.44
69715;HTU21D;56981;53.532;49.398;2022-07-17T14:35:08;29.15;42.23
69715;HTU21D;56981;53.532;49.398;2022-07-17T14:37:34;29.09;41.68
69715;HTU21D;56981;53.532;49.398;2022-07-17T14:40:00;29.05;41.64
69715;HTU21D;56981;53.532;49.398;2022-07-17T14:42:27;28.97;41.70
69715;HTU21D;56981;53.532;49.398;2022-07-17T14:44:52;28.92;42.97
69715;HTU21D;56981;53.532;49.398;2022-07-17T14:47:18;28.90;43.26
69715;HTU21D;56981;53.532;49.398;2022-07-17T14:49:44;28.92;43.63
69715;HTU21D;56981;53.532;49.398;2022-07-17T14:52:12;28.92;43.49
69715;HTU21D;56981;53.532;49.398;2022-07-17T14:54:38;28.97;43.05
69715;HTU21D;56981;53.532;49.398;2022-07-17T14:57:04;28.99;43.49
69715;HTU21D;56981;53.532;49.398;2022-07-17T14:59:30;28.92;44.16
69715;HTU21D;56981;53.532;49.398;2022-07-17T15:01:56;28.94;44.53
69715;HTU21D;56981;53.532;49.398;2022-07-17T15:04:22;28.93;45.12
69715;HTU21D;56981;53.532;49.398;2022-07-17T15:06:48;28.93;45.06
69715;HTU21D;56981;53.532;49.398;2022-07-17T15:09:14;28.95;44.58
69715;HTU21D;56981;53.532;49.398;2022-07-17T15:11:40;28.94;44.19